createdAt,value
2019-06-07T00:01:54.513Z,98759.11
2019-06-07T00:05:09.985Z,98754.73
2019-06-07T00:08:28.530Z,98748.59
2019-06-07T00:11:39.558Z,98754.12
2019-06-07T00:14:53.067Z,98748.66
2019-06-07T00:18:11.167Z,98735.39
2019-06-07T00:22:12.005Z,98737.72
2019-06-07T00:24:38.322Z,98736.22
2019-06-07T00:27:51.931Z,98727.50
2019-06-07T00:31:05.884Z,98729.86
2019-06-07T00:34:22.575Z,98727.91
2019-06-07T00:37:35.246Z,98723.39
2019-06-07T00:40:48.945Z,98721.64
2019-06-07T00:44:02.683Z,98727.23
2019-06-07T00:47:18.746Z,98722.03
2019-06-07T00:50:31.618Z,98723.31
2019-06-07T00:53:45.322Z,98727.66
2019-06-07T00:56:58.866Z,98732.52
2019-06-07T01:00:18.321Z,98720.75
2019-06-07T01:03:30.409Z,98720.14
2019-06-07T01:06:44.372Z,98722.64
2019-06-07T01:09:57.906Z,98725.75
2019-06-07T01:13:11.857Z,98723.98
2019-06-07T01:16:26.385Z,98718.59
2019-06-07T01:19:40.343Z,98710.95
2019-06-07T01:22:54.055Z,98708.92
2019-06-07T01:26:07.676Z,98706.14
2019-06-07T01:29:22.257Z,98709.03
2019-06-07T01:32:36.614Z,98706.25
2019-06-07T01:35:50.130Z,98709.81
2019-06-07T01:39:05.542Z,98707.30
2019-06-07T01:42:20.383Z,98707.22
2019-06-07T01:45:34.938Z,98707.78
2019-06-07T01:48:49.800Z,98704.87
2019-06-07T01:52:03.774Z,98701.95
2019-06-07T01:55:18.811Z,98703.78
2019-06-07T01:58:32.835Z,98700.07
2019-06-07T02:01:46.361Z,98690.34
2019-06-07T02:04:59.972Z,98691.02
2019-06-07T02:08:13.681Z,98682.03
2019-06-07T02:11:29.321Z,98679.87
2019-06-07T02:14:43.020Z,98681.69
2019-06-07T02:17:56.580Z,98677.61
2019-06-07T02:21:10.445Z,98674.83
2019-06-07T02:24:25.253Z,98665.23
2019-06-07T02:27:39.382Z,98665.11
2019-06-07T02:30:59.910Z,98665.77
2019-06-07T02:34:08.396Z,98661.44
2019-06-07T02:37:24.203Z,98667.00
2019-06-07T02:40:37.768Z,98660.11
2019-06-07T02:43:51.373Z,98662.94
2019-06-07T02:47:05.122Z,98666.82
2019-06-07T02:50:20.834Z,98669.69
2019-06-07T02:53:40.136Z,98667.69
2019-06-07T02:56:58.167Z,98662.73
2019-06-07T03:00:27.351Z,98655.73
2019-06-07T03:03:22.321Z,98647.81
2019-06-07T03:06:42.789Z,98644.86
2019-06-07T03:09:54.885Z,98641.78
2019-06-07T03:13:11.228Z,98640.86
2019-06-07T03:16:33.515Z,98638.48
2019-06-07T03:19:47.806Z,98638.71
2019-06-07T03:23:03.559Z,98639.73
2019-06-07T03:26:17.585Z,98638.67
2019-06-07T03:29:32.270Z,98637.62
2019-06-07T03:32:48.400Z,98646.09
2019-06-07T03:36:22.928Z,98643.49
2019-06-07T03:39:18.463Z,98634.26
2019-06-07T03:42:34.826Z,98622.69
2019-06-07T03:45:48.128Z,98615.97
2019-06-07T03:49:02.372Z,98612.59
2019-06-07T03:52:16.070Z,98608.70
2019-06-07T03:55:30.448Z,98616.48
2019-06-07T03:58:49.677Z,98609.67
2019-06-07T04:02:01.148Z,98605.33
2019-06-07T04:05:14.775Z,98596.84
2019-06-07T04:08:28.382Z,98596.03
2019-06-07T04:11:41.888Z,98592.90
2019-06-07T04:14:55.677Z,98596.45
2019-06-07T04:18:09.401Z,98587.15
2019-06-07T04:21:22.928Z,98585.02
2019-06-07T04:24:40.208Z,98579.06
2019-06-07T04:27:52.792Z,98571.83
2019-06-07T04:31:07.071Z,98569.08
2019-06-07T04:34:21.005Z,98562.27
2019-06-07T04:37:39.670Z,98565.05
2019-06-07T04:40:52.791Z,98557.07
2019-06-07T04:44:08.006Z,98553.70
2019-06-07T04:47:25.167Z,98549.77
2019-06-07T04:50:43.457Z,98554.59
2019-06-07T04:53:54.188Z,98547.53
2019-06-07T04:57:07.700Z,98550.25
2019-06-07T05:03:44.650Z,98545.04
2019-06-07T05:06:58.163Z,98545.42
2019-06-07T05:10:11.974Z,98548.71
2019-06-07T05:16:43.697Z,98544.50
2019-06-07T05:19:55.320Z,98543.10
2019-06-07T05:23:08.925Z,98530.83
2019-06-07T05:26:22.786Z,98525.73
2019-06-07T05:29:37.223Z,98522.15
2019-06-07T05:32:51.725Z,98520.70
2019-06-07T05:36:05.789Z,98517.07
2019-06-07T05:39:19.560Z,98515.13
2019-06-07T05:42:37.019Z,98514.47
2019-06-07T05:45:49.260Z,98509.96
2019-06-07T05:49:03.158Z,98505.55
2019-06-07T05:52:17.136Z,98504.45
2019-06-07T05:55:30.808Z,98507.63
2019-06-07T05:58:44.806Z,98508.08
2019-06-07T06:02:05.017Z,98509.96
2019-06-07T06:05:32.530Z,98511.05
2019-06-07T06:08:30.131Z,98506.38
2019-06-07T06:11:59.718Z,98504.98
2019-06-07T06:15:03.113Z,98509.36
2019-06-07T06:18:16.961Z,98498.66
2019-06-07T06:21:30.916Z,98490.41
2019-06-07T06:25:17.149Z,98489.23
2019-06-07T06:28:10.849Z,98494.27
2019-06-07T06:31:15.636Z,98490.38
2019-06-07T06:34:29.435Z,98485.54
2019-06-07T06:37:47.133Z,98479.76
2019-06-07T06:41:14.655Z,98473.73
2019-06-07T06:44:14.401Z,98464.98
2019-06-07T06:47:28.641Z,98467.94
2019-06-07T06:50:44.400Z,98483.63
2019-06-07T06:53:57.710Z,98483.66
2019-06-07T06:57:19.795Z,98468.63
2019-06-07T07:01:05.305Z,98455.44
2019-06-07T07:04:12.772Z,98454.20
2019-06-07T07:07:25.045Z,98455.50
2019-06-07T07:10:40.733Z,98450.70
2019-06-07T07:13:56.906Z,98442.71
2019-06-07T07:17:10.694Z,98439.95
2019-06-07T07:20:24.792Z,98436.90
2019-06-07T07:23:38.544Z,98432.50
2019-06-07T07:26:53.925Z,98428.16
2019-06-07T07:30:36.075Z,98430.89
2019-06-07T07:33:25.053Z,98422.48
2019-06-07T07:36:40.033Z,98421.30
2019-06-07T07:40:01.169Z,98427.44
2019-06-07T07:43:09.514Z,98426.06
2019-06-07T07:46:29.536Z,98422.91
2019-06-07T07:49:38.777Z,98413.81
2019-06-07T07:52:56.028Z,98412.25
2019-06-07T07:56:08.340Z,98411.99
2019-06-07T07:59:40.743Z,98406.78
2019-06-07T08:02:37.833Z,98410.58
2019-06-07T08:05:54.008Z,98400.55
2019-06-07T08:09:07.309Z,98400.01
2019-06-07T08:12:21.261Z,98384.69
2019-06-07T08:15:34.986Z,98382.36
2019-06-07T08:18:51.323Z,98378.02
2019-06-07T08:22:04.358Z,98377.27
2019-06-07T08:25:18.489Z,98370.21
2019-06-07T08:28:32.147Z,98371.70
2019-06-07T08:31:45.903Z,98361.55
2019-06-07T08:35:05.860Z,98362.14
2019-06-07T08:38:26.742Z,98365.70
2019-06-07T08:41:31.186Z,98355.31
2019-06-07T08:44:44.686Z,98352.27
2019-06-07T08:48:09.131Z,98346.31
2019-06-07T08:51:13.775Z,98334.20
2019-06-07T08:54:27.391Z,98337.63
2019-06-07T08:57:41.145Z,98322.56
2019-06-07T09:00:58.097Z,98330.02
2019-06-07T09:04:11.288Z,98330.46
2019-06-07T09:07:25.239Z,98319.09
2019-06-07T09:10:38.831Z,98321.64
2019-06-07T09:13:54.469Z,98314.78
2019-06-07T09:17:12.056Z,98315.08
2019-06-07T09:20:36.887Z,98307.36
2019-06-07T09:23:44.065Z,98297.97
2019-06-07T09:27:00.238Z,98298.39
2019-06-07T09:30:18.789Z,98297.20
2019-06-07T09:33:31.722Z,98294.52
2019-06-07T09:36:45.772Z,98294.00
2019-06-07T09:40:10.736Z,98286.23
2019-06-07T09:46:31.083Z,98278.58
2019-06-07T09:49:44.906Z,98275.12
2019-06-07T09:53:10.551Z,98270.83
2019-06-07T09:56:14.019Z,98257.75
2019-06-07T09:59:28.287Z,98248.67
2019-06-07T10:02:42.016Z,98240.84
2019-06-07T10:05:55.574Z,98237.05
2019-06-07T10:12:25.290Z,98220.78
2019-06-07T10:15:39.127Z,98214.56
2019-06-07T10:18:52.823Z,98212.50
2019-06-07T10:22:07.810Z,98210.73
2019-06-07T10:25:24.623Z,98206.00
2019-06-07T10:32:30.463Z,98201.63
2019-06-07T10:35:44.433Z,98195.60
2019-06-07T10:38:58.093Z,98198.57
2019-06-07T10:42:11.855Z,98193.89
2019-06-07T10:45:25.440Z,98203.64
2019-06-07T10:48:39.113Z,98192.00
2019-06-07T10:51:52.894Z,98184.20
2019-06-07T10:55:06.835Z,98177.66
2019-06-07T10:58:20.481Z,98182.84
2019-06-07T11:01:34.060Z,98173.91
2019-06-07T11:04:47.563Z,98169.06
2019-06-07T11:08:01.356Z,98162.97
2019-06-07T11:11:15.169Z,98143.66
2019-06-07T11:14:28.674Z,98145.21
2019-06-07T11:17:42.341Z,98139.44
2019-06-07T11:20:55.851Z,98138.92
2019-06-07T11:24:10.165Z,98127.33
2019-06-07T11:27:24.025Z,98127.93
2019-06-07T11:30:37.794Z,98113.77
2019-06-07T11:33:51.423Z,98116.84
2019-06-07T11:37:07.188Z,98111.98
2019-06-07T11:40:35.292Z,98108.25
2019-06-07T11:43:37.430Z,98102.33
2019-06-07T11:46:51.402Z,98101.45
2019-06-07T11:50:05.192Z,98103.30
2019-06-07T11:53:19.992Z,98112.73
2019-06-07T11:56:36.220Z,98113.28
2019-06-07T11:59:49.914Z,98100.22
2019-06-07T12:03:03.586Z,98090.48
2019-06-07T12:06:18.118Z,98095.81
2019-06-07T12:09:32.036Z,98108.70
2019-06-07T12:16:39.986Z,98099.40
2019-06-07T12:19:53.589Z,98094.87
2019-06-07T12:23:07.229Z,98084.02
2019-06-07T12:26:20.945Z,98078.81
2019-06-07T12:29:34.727Z,98079.78
2019-06-07T12:32:48.281Z,98079.92
2019-06-07T12:36:02.361Z,98082.59
2019-06-07T12:39:16.110Z,98077.30
2019-06-07T12:42:30.102Z,98085.16
2019-06-07T12:45:45.406Z,98083.39
2019-06-07T12:48:59.364Z,98079.12
2019-06-07T12:52:14.649Z,98069.04
2019-06-07T12:55:28.705Z,98062.94
2019-06-07T12:58:42.642Z,98067.46
2019-06-07T13:02:01.830Z,98067.53
2019-06-07T13:05:12.402Z,98053.94
2019-06-07T13:08:26.427Z,98033.33
2019-06-07T13:11:40.064Z,98019.76
2019-06-07T13:14:53.596Z,98015.38
2019-06-07T13:18:07.332Z,98010.99
2019-06-07T13:21:22.277Z,98002.20
2019-06-07T13:24:36.522Z,97995.64
2019-06-07T13:27:51.970Z,97975.91
2019-06-07T13:31:05.977Z,97975.00
2019-06-07T13:34:20.499Z,97973.27
2019-06-07T13:37:36.488Z,97976.79
2019-06-07T13:40:50.184Z,97975.89
2019-06-07T13:44:45.852Z,97978.92
2019-06-07T13:47:59.810Z,97971.44
2019-06-07T13:51:13.718Z,97979.34
2019-06-07T13:54:27.841Z,97980.63
2019-06-07T13:57:41.547Z,97980.63
2019-06-07T14:00:55.154Z,97970.98
2019-06-07T14:04:09.250Z,97967.84
2019-06-07T14:07:23.596Z,97973.11
2019-06-07T14:10:38.691Z,97970.94
2019-06-07T14:13:52.622Z,97965.73
2019-06-07T14:17:06.423Z,97972.78
2019-06-07T14:20:26.672Z,97970.12
2019-06-07T14:23:48.354Z,97965.64
2019-06-07T14:27:05.810Z,97962.12
2019-06-07T14:30:21.684Z,97956.82
2019-06-07T14:33:35.647Z,97969.58
2019-06-07T14:36:49.424Z,97963.55
2019-06-07T14:40:04.070Z,97952.60
2019-06-07T14:43:17.986Z,97935.50
2019-06-07T14:46:32.160Z,97945.19
2019-06-07T14:49:46.408Z,97945.61
2019-06-07T14:53:00.320Z,97937.70
2019-06-07T14:56:13.859Z,97946.89
2019-06-07T14:59:28.320Z,97938.13
2019-06-07T15:02:42.023Z,97928.45
2019-06-07T15:05:55.936Z,97938.52
2019-06-07T15:09:09.722Z,97931.48
2019-06-07T15:12:25.451Z,97967.30
2019-06-07T15:15:39.053Z,97958.74
2019-06-07T15:18:52.605Z,97983.69
2019-06-07T15:22:06.498Z,98020.68
2019-06-07T15:25:20.129Z,98048.69
2019-06-07T15:28:34.171Z,98067.70
2019-06-07T15:31:48.150Z,98092.06
2019-06-07T15:35:01.922Z,98078.87
2019-06-07T15:38:15.745Z,98079.87
2019-06-07T15:41:30.959Z,98088.41
2019-06-07T15:44:44.549Z,98095.38
2019-06-07T15:47:58.462Z,98083.61
2019-06-07T15:51:12.410Z,98066.80
2019-06-07T15:54:25.965Z,98060.25
2019-06-07T15:57:41.537Z,98034.09
2019-06-07T16:00:55.444Z,98014.65
2019-06-07T16:04:09.221Z,98041.47
2019-06-07T16:07:23.166Z,98055.42
2019-06-07T16:10:37.084Z,98059.32
2019-06-07T16:13:57.571Z,98048.48
2019-06-07T16:17:25.028Z,98060.84
2019-06-07T16:20:47.932Z,98105.78
2019-06-07T16:24:04.088Z,98131.05
2019-06-07T16:27:22.523Z,98155.28
2019-06-07T16:31:09.334Z,98209.48
2019-06-07T16:34:27.805Z,98245.27
2019-06-07T16:37:43.045Z,98291.84
2019-06-07T16:41:00.001Z,98323.80
2019-06-07T16:44:15.935Z,98352.76
2019-06-07T16:47:31.167Z,98359.12
2019-06-07T16:50:47.220Z,98339.79
2019-06-07T16:54:02.643Z,98395.83
2019-06-07T16:57:17.651Z,98406.92
2019-06-07T17:00:35.010Z,98442.27
2019-06-07T17:03:49.839Z,98455.70
2019-06-07T17:07:05.561Z,98437.69
2019-06-07T17:10:20.464Z,98478.23
2019-06-07T17:13:36.789Z,98438.34
2019-06-07T17:16:52.159Z,98485.49
2019-06-07T17:20:08.264Z,98472.46
2019-06-07T17:23:24.692Z,98455.20
2019-06-07T17:26:39.595Z,98470.34
2019-06-07T17:29:56.560Z,98451.55
2019-06-07T17:33:12.916Z,98487.66
2019-06-07T17:36:29.436Z,98472.36
2019-06-07T17:39:44.993Z,98465.98
2019-06-07T17:43:01.128Z,98483.42
2019-06-07T17:46:16.793Z,98481.45
2019-06-07T17:49:31.973Z,98501.44
2019-06-07T17:52:47.922Z,98449.48
2019-06-07T17:56:02.843Z,98444.53
2019-06-07T17:59:18.543Z,98475.75
2019-06-07T18:02:34.249Z,98500.16
2019-06-07T18:05:49.391Z,98512.70
2019-06-07T18:09:07.039Z,98523.16
2019-06-07T18:12:22.963Z,98498.28
2019-06-07T18:15:39.048Z,98521.14
2019-06-07T18:18:54.856Z,98541.43
2019-06-07T18:22:09.611Z,98549.35
2019-06-07T18:25:25.429Z,98529.00
2019-06-07T18:28:40.567Z,98549.83
2019-06-07T18:31:55.759Z,98482.81
2019-06-07T18:35:10.708Z,98490.56
2019-06-07T18:38:25.613Z,98479.85
2019-06-07T18:41:40.254Z,98478.13
2019-06-07T18:44:55.511Z,98456.66
2019-06-07T18:48:10.593Z,98469.25
2019-06-07T18:51:25.894Z,98461.11
2019-06-07T18:54:41.060Z,98493.24
2019-06-07T18:57:56.507Z,98489.78
2019-06-07T19:01:12.149Z,98450.47
2019-06-07T19:04:28.559Z,98465.05
2019-06-07T19:07:43.213Z,98496.23
2019-06-07T19:10:58.996Z,98488.09
2019-06-07T19:14:13.689Z,98494.31
2019-06-07T19:17:29.278Z,98505.33
2019-06-07T19:20:44.126Z,98533.08
2019-06-07T19:24:00.104Z,98539.03
2019-06-07T19:27:17.227Z,98556.66
2019-06-07T19:30:32.300Z,98552.91
2019-06-07T19:33:49.307Z,98552.61
2019-06-07T19:37:05.024Z,98544.25
2019-06-07T19:40:20.774Z,98519.49
2019-06-07T19:43:35.682Z,98508.24
2019-06-07T19:46:52.201Z,98491.98
2019-06-07T19:50:09.717Z,98473.37
2019-06-07T19:53:25.895Z,98462.55
2019-06-07T19:56:40.761Z,98464.36
2019-06-07T19:59:55.551Z,98450.02
2019-06-07T20:03:10.912Z,98437.63
2019-06-07T20:06:25.900Z,98446.92
2019-06-07T20:09:40.636Z,98450.37
2019-06-07T20:12:56.590Z,98476.05
2019-06-07T20:16:11.800Z,98484.13
2019-06-07T20:19:26.844Z,98509.88
2019-06-07T20:22:41.823Z,98569.31
2019-06-07T20:25:56.689Z,98587.16
2019-06-07T20:29:25.535Z,98602.11
2019-06-07T20:32:29.660Z,98624.70
2019-06-07T20:35:44.917Z,98624.22
2019-06-07T20:39:00.174Z,98633.70
2019-06-07T20:42:16.275Z,98626.25
2019-06-07T20:45:33.930Z,98635.88
2019-06-07T20:48:49.365Z,98616.42
2019-06-07T20:52:04.886Z,98641.79
2019-06-07T20:55:20.282Z,98653.68
2019-06-07T20:58:35.321Z,98655.54
2019-06-07T21:01:52.154Z,98656.58
2019-06-07T21:05:07.900Z,98665.28
2019-06-07T21:08:22.914Z,98663.27
2019-06-07T21:11:38.651Z,98655.62
2019-06-07T21:16:44.608Z,98667.18
2019-06-07T21:20:00.541Z,98633.45
2019-06-07T21:23:15.452Z,98626.02
2019-06-07T21:26:30.493Z,98614.41
2019-06-07T21:29:45.288Z,98610.05
2019-06-07T21:33:01.354Z,98615.39
2019-06-07T21:36:16.975Z,98628.87
2019-06-07T21:39:32.126Z,98646.13
2019-06-07T21:42:47.079Z,98638.39
2019-06-07T21:46:07.237Z,98663.52
2019-06-07T21:49:19.582Z,98678.91
2019-06-07T21:52:34.282Z,98685.59
2019-06-07T21:55:49.089Z,98681.72
2019-06-07T21:59:05.055Z,98671.39
2019-06-07T22:02:21.143Z,98659.27
2019-06-07T22:05:36.156Z,98641.06
2019-06-07T22:08:51.056Z,98649.25
2019-06-07T22:12:10.038Z,98660.53
2019-06-07T22:15:34.046Z,98678.48
2019-06-07T22:18:42.708Z,98662.88
2019-06-07T22:22:02.783Z,98662.10
2019-06-07T22:25:15.899Z,98692.26
2019-06-07T22:28:30.752Z,98697.14
2019-06-07T22:31:46.233Z,98684.03
2019-06-07T22:35:01.321Z,98690.97
2019-06-07T22:38:16.183Z,98708.53
2019-06-07T22:41:30.928Z,98707.14
2019-06-07T22:44:45.697Z,98731.05
2019-06-07T22:48:00.877Z,98733.83
2019-06-07T22:51:16.486Z,98728.66
2019-06-07T22:54:32.838Z,98727.92
2019-06-07T22:57:56.992Z,98731.36
2019-06-07T23:01:12.553Z,98727.02
2019-06-07T23:04:27.766Z,98730.08
2019-06-07T23:07:42.504Z,98707.34
2019-06-07T23:10:57.377Z,98719.92
2019-06-07T23:14:13.462Z,98733.22
2019-06-07T23:17:28.068Z,98732.38
2019-06-07T23:20:43.205Z,98746.85
2019-06-07T23:23:58.050Z,98751.41
2019-06-07T23:27:14.480Z,98763.92
2019-06-07T23:30:31.173Z,98766.47
2019-06-07T23:33:46.060Z,98774.91
2019-06-07T23:37:00.850Z,98766.55
2019-06-07T23:40:17.402Z,98772.77
2019-06-07T23:43:33.269Z,98785.48
2019-06-07T23:46:48.388Z,98771.10
2019-06-07T23:50:03.618Z,98764.61
2019-06-07T23:53:19.992Z,98762.95
2019-06-07T23:56:34.851Z,98760.67
2019-06-07T23:59:49.599Z,98749.31
